This is the latest recevied weather packets stored in our database for station/object EA1IOK-1. If no packets are shown the sender has not sent any weather packets the latest 10 day(s).
| Time | Temp. | Humidity | Pressure | Rain* | Wind** | Luminosity | Snow |
|---|---|---|---|---|---|---|---|
| 1777666910 | 16.11° C | 100% | 1016.4 hPa | - | - | - | - |
| 1777666009 | 16.67° C | 100% | 1016.2 hPa | - | - | - | - |
| 1777665108 | 16.67° C | 100% | 1015.9 hPa | - | - | - | - |
| 1777664207 | 17.22° C | 100% | 1015.7 hPa | - | - | - | - |
| 1777663306 | 17.78° C | 100% | 1015.5 hPa | - | - | - | - |
| 1777662406 | 18.33° C | 100% | 1015.1 hPa | - | - | - | - |
| 1777661505 | 18.89° C | 100% | 1015.1 hPa | - | - | - | - |
| 1777660603 | 20° C | 100% | 1015 hPa | - | - | - | - |
| 1777659702 | 21.11° C | 94% | 1014.8 hPa | - | - | - | - |
| 1777658801 | 21.11° C | 93% | 1014.8 hPa | - | - | - | - |
| 1777657900 | 21.67° C | 90% | 1014.8 hPa | - | - | - | - |
| 1777656999 | 21.67° C | 86% | 1014.8 hPa | - | - | - | - |
| 1777656098 | 21.67° C | 79% | 1014.9 hPa | - | - | - | - |
| 1777655197 | 22.22° C | 72% | 1014.8 hPa | - | - | - | - |
| 1777654296 | 22.78° C | 72% | 1014.8 hPa | - | - | - | - |
| 1777653395 | 24.44° C | 66% | 1014.8 hPa | - | - | - | - |
| 1777652494 | 25.56° C | 61% | 1014.7 hPa | - | - | - | - |
| 1777651593 | 24.44° C | 68% | 1014.8 hPa | - | - | - | - |
| 1777650692 | 24.44° C | 64% | 1015 hPa | - | - | - | - |
| 1777649792 | 23.89° C | 64% | 1015.2 hPa | - | - | - | - |
| 1777648891 | 23.89° C | 67% | 1015.2 hPa | - | - | - | - |
| 1777647991 | 23.89° C | 68% | 1015.3 hPa | - | - | - | - |
| 1777647090 | 27.78° C | 57% | 1015.4 hPa | - | - | - | - |
| 1777646190 | 23.33° C | 73% | 1015.5 hPa | - | - | - | - |
| 1777645289 | 24.44° C | 67% | 1015.7 hPa | - | - | - | - |
* Rain since midnight (hover to see other rain measurements)
** Current wind speed in m/s (hover to see current wind gust speed)